sensor_id;sensor_type;location;lat;lon;timestamp;temperature;humidity
17174;DHT22;8702;48.130;-1.696;2022-10-16T00:00:46;16.70;99.90
17174;DHT22;8702;48.130;-1.696;2022-10-16T00:03:13;16.80;99.90
17174;DHT22;8702;48.130;-1.696;2022-10-16T00:05:42;16.80;99.90
17174;DHT22;8702;48.130;-1.696;2022-10-16T00:08:10;16.80;99.90
17174;DHT22;8702;48.130;-1.696;2022-10-16T00:10:39;16.80;99.90
17174;DHT22;8702;48.130;-1.696;2022-10-16T00:13:07;16.80;99.90
17174;DHT22;8702;48.130;-1.696;2022-10-16T00:15:34;16.70;99.90
17174;DHT22;8702;48.130;-1.696;2022-10-16T00:18:03;17.00;99.90
17174;DHT22;8702;48.130;-1.696;2022-10-16T00:20:30;16.70;99.90
17174;DHT22;8702;48.130;-1.696;2022-10-16T00:23:00;16.70;99.90
17174;DHT22;8702;48.130;-1.696;2022-10-16T00:25:26;16.70;99.90
17174;DHT22;8702;48.130;-1.696;2022-10-16T00:27:55;16.70;99.90
17174;DHT22;8702;48.130;-1.696;2022-10-16T00:30:22;16.70;99.90
17174;DHT22;8702;48.130;-1.696;2022-10-16T00:32:49;16.70;99.90
17174;DHT22;8702;48.130;-1.696;2022-10-16T00:35:16;16.70;99.90
17174;DHT22;8702;48.130;-1.696;2022-10-16T00:37:43;16.80;99.90
17174;DHT22;8702;48.130;-1.696;2022-10-16T00:40:10;16.80;99.90
17174;DHT22;8702;48.130;-1.696;2022-10-16T00:42:37;16.70;99.90
17174;DHT22;8702;48.130;-1.696;2022-10-16T00:45:08;16.70;99.90
17174;DHT22;8702;48.130;-1.696;2022-10-16T00:47:38;16.70;99.90
17174;DHT22;8702;48.130;-1.696;2022-10-16T00:50:08;16.70;99.90
17174;DHT22;8702;48.130;-1.696;2022-10-16T00:52:37;16.70;99.90
17174;DHT22;8702;48.130;-1.696;2022-10-16T00:55:06;16.70;99.90
17174;DHT22;8702;48.130;-1.696;2022-10-16T00:57:35;16.70;99.90
17174;DHT22;8702;48.130;-1.696;2022-10-16T01:00:11;16.80;99.90
17174;DHT22;8702;48.130;-1.696;2022-10-16T01:02:39;16.80;99.90
17174;DHT22;8702;48.130;-1.696;2022-10-16T01:05:06;16.70;99.90
17174;DHT22;8702;48.130;-1.696;2022-10-16T01:07:41;16.80;99.90
17174;DHT22;8702;48.130;-1.696;2022-10-16T01:10:19;16.80;99.90
17174;DHT22;8702;48.130;-1.696;2022-10-16T01:12:53;16.80;99.90
17174;DHT22;8702;48.130;-1.696;2022-10-16T01:15:27;16.80;99.90
17174;DHT22;8702;48.130;-1.696;2022-10-16T01:18:00;16.80;99.90
17174;DHT22;8702;48.130;-1.696;2022-10-16T01:20:30;16.80;99.90
17174;DHT22;8702;48.130;-1.696;2022-10-16T01:23:15;16.80;99.90
17174;DHT22;8702;48.130;-1.696;2022-10-16T01:28:47;16.80;99.90
17174;DHT22;8702;48.130;-1.696;2022-10-16T01:31:19;16.80;99.90
17174;DHT22;8702;48.130;-1.696;2022-10-16T01:33:53;16.80;99.90
17174;DHT22;8702;48.130;-1.696;2022-10-16T01:36:25;16.90;99.90
17174;DHT22;8702;48.130;-1.696;2022-10-16T01:38:56;16.90;99.90
17174;DHT22;8702;48.130;-1.696;2022-10-16T01:41:28;17.00;99.90
17174;DHT22;8702;48.130;-1.696;2022-10-16T01:44:02;17.00;99.90
17174;DHT22;8702;48.130;-1.696;2022-10-16T01:46:33;17.00;99.90
17174;DHT22;8702;48.130;-1.696;2022-10-16T01:49:01;17.00;99.90
17174;DHT22;8702;48.130;-1.696;2022-10-16T01:51:29;16.90;99.90
17174;DHT22;8702;48.130;-1.696;2022-10-16T01:53:59;16.90;99.90
17174;DHT22;8702;48.130;-1.696;2022-10-16T01:56:29;16.90;99.90
17174;DHT22;8702;48.130;-1.696;2022-10-16T01:59:01;16.90;99.90
17174;DHT22;8702;48.130;-1.696;2022-10-16T02:01:31;16.90;99.90
17174;DHT22;8702;48.130;-1.696;2022-10-16T02:04:03;16.90;99.90
17174;DHT22;8702;48.130;-1.696;2022-10-16T02:06:32;16.80;99.90
17174;DHT22;8702;48.130;-1.696;2022-10-16T02:08:59;16.80;99.90
17174;DHT22;8702;48.130;-1.696;2022-10-16T02:11:26;16.90;99.90
17174;DHT22;8702;48.130;-1.696;2022-10-16T02:13:57;16.90;99.90
17174;DHT22;8702;48.130;-1.696;2022-10-16T02:16:34;16.80;99.90
17174;DHT22;8702;48.130;-1.696;2022-10-16T02:19:02;16.90;99.90
17174;DHT22;8702;48.130;-1.696;2022-10-16T02:21:34;16.90;99.90
17174;DHT22;8702;48.130;-1.696;2022-10-16T02:24:08;16.80;99.90
17174;DHT22;8702;48.130;-1.696;2022-10-16T02:26:43;16.90;99.90
17174;DHT22;8702;48.130;-1.696;2022-10-16T02:29:17;16.80;99.90
17174;DHT22;8702;48.130;-1.696;2022-10-16T02:31:50;16.90;99.90
17174;DHT22;8702;48.130;-1.696;2022-10-16T02:34:19;16.90;99.90
17174;DHT22;8702;48.130;-1.696;2022-10-16T02:36:48;16.90;99.90
17174;DHT22;8702;48.130;-1.696;2022-10-16T02:39:18;17.00;99.90
17174;DHT22;8702;48.130;-1.696;2022-10-16T02:41:46;16.90;99.90
17174;DHT22;8702;48.130;-1.696;2022-10-16T02:44:14;16.90;99.90
17174;DHT22;8702;48.130;-1.696;2022-10-16T02:46:40;16.80;99.90
17174;DHT22;8702;48.130;-1.696;2022-10-16T02:49:09;16.90;99.90
17174;DHT22;8702;48.130;-1.696;2022-10-16T02:51:36;16.80;99.90
17174;DHT22;8702;48.130;-1.696;2022-10-16T02:54:03;16.80;99.90
17174;DHT22;8702;48.130;-1.696;2022-10-16T02:56:30;16.80;99.90
17174;DHT22;8702;48.130;-1.696;2022-10-16T02:58:57;16.80;99.90
17174;DHT22;8702;48.130;-1.696;2022-10-16T03:01:24;16.80;99.90
17174;DHT22;8702;48.130;-1.696;2022-10-16T03:03:51;16.90;99.90
17174;DHT22;8702;48.130;-1.696;2022-10-16T03:06:19;16.90;99.90
17174;DHT22;8702;48.130;-1.696;2022-10-16T03:08:47;16.90;99.90
17174;DHT22;8702;48.130;-1.696;2022-10-16T03:11:14;16.90;99.90
17174;DHT22;8702;48.130;-1.696;2022-10-16T03:13:41;16.90;99.90
17174;DHT22;8702;48.130;-1.696;2022-10-16T03:16:08;16.90;99.90
17174;DHT22;8702;48.130;-1.696;2022-10-16T03:18:35;16.80;99.90
17174;DHT22;8702;48.130;-1.696;2022-10-16T03:21:02;16.80;99.90
17174;DHT22;8702;48.130;-1.696;2022-10-16T03:23:30;16.70;99.90
17174;DHT22;8702;48.130;-1.696;2022-10-16T03:25:57;16.70;99.90
17174;DHT22;8702;48.130;-1.696;2022-10-16T03:28:25;16.70;99.90
17174;DHT22;8702;48.130;-1.696;2022-10-16T03:30:51;16.70;99.90
17174;DHT22;8702;48.130;-1.696;2022-10-16T03:33:18;16.60;99.90
17174;DHT22;8702;48.130;-1.696;2022-10-16T03:35:51;16.60;99.90
17174;DHT22;8702;48.130;-1.696;2022-10-16T03:38:19;16.60;99.90
17174;DHT22;8702;48.130;-1.696;2022-10-16T03:40:48;16.70;99.90
17174;DHT22;8702;48.130;-1.696;2022-10-16T03:43:15;16.60;99.90
17174;DHT22;8702;48.130;-1.696;2022-10-16T03:45:42;16.60;99.90
17174;DHT22;8702;48.130;-1.696;2022-10-16T03:48:09;16.60;99.90
17174;DHT22;8702;48.130;-1.696;2022-10-16T03:50:36;16.60;99.90
17174;DHT22;8702;48.130;-1.696;2022-10-16T03:53:03;16.60;99.90
17174;DHT22;8702;48.130;-1.696;2022-10-16T03:55:30;16.70;99.90
17174;DHT22;8702;48.130;-1.696;2022-10-16T03:57:58;16.70;99.90
17174;DHT22;8702;48.130;-1.696;2022-10-16T04:00:25;16.70;99.90
17174;DHT22;8702;48.130;-1.696;2022-10-16T04:02:52;16.80;99.90
17174;DHT22;8702;48.130;-1.696;2022-10-16T04:05:20;16.80;99.90
17174;DHT22;8702;48.130;-1.696;2022-10-16T04:07:46;16.80;99.90
17174;DHT22;8702;48.130;-1.696;2022-10-16T04:10:13;16.70;99.90
17174;DHT22;8702;48.130;-1.696;2022-10-16T04:12:40;16.70;99.90
17174;DHT22;8702;48.130;-1.696;2022-10-16T04:15:09;16.70;99.90
17174;DHT22;8702;48.130;-1.696;2022-10-16T04:17:36;16.70;99.90
17174;DHT22;8702;48.130;-1.696;2022-10-16T04:20:04;16.70;99.90
17174;DHT22;8702;48.130;-1.696;2022-10-16T04:22:31;16.80;99.90
17174;DHT22;8702;48.130;-1.696;2022-10-16T04:24:58;16.80;99.90
17174;DHT22;8702;48.130;-1.696;2022-10-16T04:27:25;16.80;99.90
17174;DHT22;8702;48.130;-1.696;2022-10-16T04:29:52;16.80;99.90
17174;DHT22;8702;48.130;-1.696;2022-10-16T04:32:20;16.80;99.90
17174;DHT22;8702;48.130;-1.696;2022-10-16T04:34:47;16.90;99.90
17174;DHT22;8702;48.130;-1.696;2022-10-16T04:37:14;16.90;99.90
17174;DHT22;8702;48.130;-1.696;2022-10-16T04:39:41;17.00;99.90
17174;DHT22;8702;48.130;-1.696;2022-10-16T04:42:08;16.90;99.90
17174;DHT22;8702;48.130;-1.696;2022-10-16T04:44:35;17.00;99.90
17174;DHT22;8702;48.130;-1.696;2022-10-16T04:47:02;17.00;99.90
17174;DHT22;8702;48.130;-1.696;2022-10-16T04:49:31;17.00;99.90
17174;DHT22;8702;48.130;-1.696;2022-10-16T04:51:58;17.00;99.90
17174;DHT22;8702;48.130;-1.696;2022-10-16T04:54:25;17.00;99.90
17174;DHT22;8702;48.130;-1.696;2022-10-16T04:56:52;17.00;99.90
17174;DHT22;8702;48.130;-1.696;2022-10-16T04:59:20;17.10;99.90
17174;DHT22;8702;48.130;-1.696;2022-10-16T05:01:47;17.10;99.90
17174;DHT22;8702;48.130;-1.696;2022-10-16T05:04:15;17.10;99.90
17174;DHT22;8702;48.130;-1.696;2022-10-16T05:06:43;17.10;99.90
17174;DHT22;8702;48.130;-1.696;2022-10-16T05:09:10;17.10;99.90
17174;DHT22;8702;48.130;-1.696;2022-10-16T05:11:37;17.10;99.90
17174;DHT22;8702;48.130;-1.696;2022-10-16T05:14:04;17.10;99.90
17174;DHT22;8702;48.130;-1.696;2022-10-16T05:16:31;17.10;99.90
17174;DHT22;8702;48.130;-1.696;2022-10-16T05:18:58;17.20;99.90
17174;DHT22;8702;48.130;-1.696;2022-10-16T05:21:25;16.90;99.90
17174;DHT22;8702;48.130;-1.696;2022-10-16T05:23:54;17.20;99.90
17174;DHT22;8702;48.130;-1.696;2022-10-16T05:26:21;17.20;99.90
17174;DHT22;8702;48.130;-1.696;2022-10-16T05:28:49;17.20;99.90
17174;DHT22;8702;48.130;-1.696;2022-10-16T05:31:16;17.20;99.90
17174;DHT22;8702;48.130;-1.696;2022-10-16T05:33:43;17.20;99.90
17174;DHT22;8702;48.130;-1.696;2022-10-16T05:36:11;17.30;99.90
17174;DHT22;8702;48.130;-1.696;2022-10-16T05:38:38;17.30;99.90
17174;DHT22;8702;48.130;-1.696;2022-10-16T05:41:07;17.30;99.90
17174;DHT22;8702;48.130;-1.696;2022-10-16T05:43:33;17.30;99.90
17174;DHT22;8702;48.130;-1.696;2022-10-16T05:46:02;17.30;99.90
17174;DHT22;8702;48.130;-1.696;2022-10-16T05:48:30;17.30;99.90
17174;DHT22;8702;48.130;-1.696;2022-10-16T05:50:58;17.30;99.90
17174;DHT22;8702;48.130;-1.696;2022-10-16T05:53:25;17.30;99.90
17174;DHT22;8702;48.130;-1.696;2022-10-16T05:55:53;17.40;99.90
17174;DHT22;8702;48.130;-1.696;2022-10-16T05:58:22;17.40;99.90
17174;DHT22;8702;48.130;-1.696;2022-10-16T06:00:56;17.40;99.90
17174;DHT22;8702;48.130;-1.696;2022-10-16T06:03:23;17.40;99.90
17174;DHT22;8702;48.130;-1.696;2022-10-16T06:05:50;17.40;99.90
17174;DHT22;8702;48.130;-1.696;2022-10-16T06:08:18;17.40;99.90
17174;DHT22;8702;48.130;-1.696;2022-10-16T06:10:45;17.60;99.90
17174;DHT22;8702;48.130;-1.696;2022-10-16T06:13:13;17.40;99.90
17174;DHT22;8702;48.130;-1.696;2022-10-16T06:15:42;17.40;99.90
17174;DHT22;8702;48.130;-1.696;2022-10-16T06:18:09;17.50;99.90
17174;DHT22;8702;48.130;-1.696;2022-10-16T06:20:37;17.40;99.90
17174;DHT22;8702;48.130;-1.696;2022-10-16T06:23:04;17.40;99.90
17174;DHT22;8702;48.130;-1.696;2022-10-16T06:25:31;17.30;99.90
17174;DHT22;8702;48.130;-1.696;2022-10-16T06:27:58;17.30;99.90
17174;DHT22;8702;48.130;-1.696;2022-10-16T06:30:25;17.30;99.90
17174;DHT22;8702;48.130;-1.696;2022-10-16T06:32:53;17.30;99.90
17174;DHT22;8702;48.130;-1.696;2022-10-16T06:35:20;17.30;99.90
17174;DHT22;8702;48.130;-1.696;2022-10-16T06:37:47;17.30;99.90
17174;DHT22;8702;48.130;-1.696;2022-10-16T06:40:14;17.40;99.90
17174;DHT22;8702;48.130;-1.696;2022-10-16T06:42:41;17.40;99.90
17174;DHT22;8702;48.130;-1.696;2022-10-16T06:45:09;17.50;99.90
17174;DHT22;8702;48.130;-1.696;2022-10-16T06:47:37;17.50;99.90
17174;DHT22;8702;48.130;-1.696;2022-10-16T06:50:06;17.50;99.90
17174;DHT22;8702;48.130;-1.696;2022-10-16T06:52:33;17.50;99.90
17174;DHT22;8702;48.130;-1.696;2022-10-16T06:55:00;17.50;99.90
17174;DHT22;8702;48.130;-1.696;2022-10-16T06:57:28;17.50;99.90
17174;DHT22;8702;48.130;-1.696;2022-10-16T06:59:55;17.50;99.90
17174;DHT22;8702;48.130;-1.696;2022-10-16T07:02:22;17.50;99.90
17174;DHT22;8702;48.130;-1.696;2022-10-16T07:04:49;17.50;99.90
17174;DHT22;8702;48.130;-1.696;2022-10-16T07:07:17;17.60;99.90
17174;DHT22;8702;48.130;-1.696;2022-10-16T07:09:44;17.50;99.90
17174;DHT22;8702;48.130;-1.696;2022-10-16T07:12:11;17.60;99.90
17174;DHT22;8702;48.130;-1.696;2022-10-16T07:14:38;17.60;99.90
17174;DHT22;8702;48.130;-1.696;2022-10-16T07:17:05;17.60;99.90
17174;DHT22;8702;48.130;-1.696;2022-10-16T07:19:32;17.50;99.90
17174;DHT22;8702;48.130;-1.696;2022-10-16T07:21:59;17.60;99.90
17174;DHT22;8702;48.130;-1.696;2022-10-16T07:24:27;17.60;99.90
17174;DHT22;8702;48.130;-1.696;2022-10-16T07:26:54;17.60;99.90
17174;DHT22;8702;48.130;-1.696;2022-10-16T07:29:21;17.50;99.90
17174;DHT22;8702;48.130;-1.696;2022-10-16T07:31:49;17.60;99.90
17174;DHT22;8702;48.130;-1.696;2022-10-16T07:34:17;17.70;99.90
17174;DHT22;8702;48.130;-1.696;2022-10-16T07:36:46;17.70;99.90
17174;DHT22;8702;48.130;-1.696;2022-10-16T07:39:16;17.70;99.90
17174;DHT22;8702;48.130;-1.696;2022-10-16T07:41:45;17.80;99.90
17174;DHT22;8702;48.130;-1.696;2022-10-16T07:44:12;17.80;99.90
17174;DHT22;8702;48.130;-1.696;2022-10-16T07:46:39;17.80;99.90
17174;DHT22;8702;48.130;-1.696;2022-10-16T07:49:06;17.80;99.90
17174;DHT22;8702;48.130;-1.696;2022-10-16T07:51:33;17.90;99.90
17174;DHT22;8702;48.130;-1.696;2022-10-16T07:54:00;17.90;99.90
17174;DHT22;8702;48.130;-1.696;2022-10-16T07:56:27;17.90;99.90
17174;DHT22;8702;48.130;-1.696;2022-10-16T07:58:55;17.90;99.90
17174;DHT22;8702;48.130;-1.696;2022-10-16T08:01:22;17.90;99.90
17174;DHT22;8702;48.130;-1.696;2022-10-16T08:03:50;17.90;99.90
17174;DHT22;8702;48.130;-1.696;2022-10-16T08:06:19;17.90;99.90
17174;DHT22;8702;48.130;-1.696;2022-10-16T08:08:46;17.90;99.90
17174;DHT22;8702;48.130;-1.696;2022-10-16T08:11:13;17.90;99.90
17174;DHT22;8702;48.130;-1.696;2022-10-16T08:13:41;18.00;99.90
17174;DHT22;8702;48.130;-1.696;2022-10-16T08:16:09;18.00;99.90
17174;DHT22;8702;48.130;-1.696;2022-10-16T08:18:37;17.90;99.90
17174;DHT22;8702;48.130;-1.696;2022-10-16T08:21:05;17.90;99.90
17174;DHT22;8702;48.130;-1.696;2022-10-16T08:23:33;18.00;99.90
17174;DHT22;8702;48.130;-1.696;2022-10-16T08:26:03;18.00;99.90
17174;DHT22;8702;48.130;-1.696;2022-10-16T08:28:31;18.10;99.90
17174;DHT22;8702;48.130;-1.696;2022-10-16T08:31:05;18.00;99.90
17174;DHT22;8702;48.130;-1.696;2022-10-16T08:33:34;18.10;99.90
17174;DHT22;8702;48.130;-1.696;2022-10-16T08:36:02;18.00;99.90
17174;DHT22;8702;48.130;-1.696;2022-10-16T08:38:29;18.10;99.90
17174;DHT22;8702;48.130;-1.696;2022-10-16T08:41:10;18.10;99.90
17174;DHT22;8702;48.130;-1.696;2022-10-16T08:43:50;18.10;99.90
17174;DHT22;8702;48.130;-1.696;2022-10-16T08:46:31;18.20;99.90
17174;DHT22;8702;48.130;-1.696;2022-10-16T08:49:01;18.20;99.90
17174;DHT22;8702;48.130;-1.696;2022-10-16T08:51:31;18.20;99.90
17174;DHT22;8702;48.130;-1.696;2022-10-16T08:54:02;18.30;99.90
17174;DHT22;8702;48.130;-1.696;2022-10-16T08:56:29;18.20;99.90
17174;DHT22;8702;48.130;-1.696;2022-10-16T08:58:58;18.20;99.90
17174;DHT22;8702;48.130;-1.696;2022-10-16T09:01:33;18.20;99.90
17174;DHT22;8702;48.130;-1.696;2022-10-16T09:04:29;18.30;99.90
17174;DHT22;8702;48.130;-1.696;2022-10-16T09:07:06;18.30;99.90
17174;DHT22;8702;48.130;-1.696;2022-10-16T09:09:53;18.30;99.90
17174;DHT22;8702;48.130;-1.696;2022-10-16T09:12:24;18.30;99.90
17174;DHT22;8702;48.130;-1.696;2022-10-16T09:15:01;18.30;99.90
17174;DHT22;8702;48.130;-1.696;2022-10-16T09:17:39;18.40;99.90
17174;DHT22;8702;48.130;-1.696;2022-10-16T09:20:23;18.40;99.90
17174;DHT22;8702;48.130;-1.696;2022-10-16T09:25:26;18.40;99.90
17174;DHT22;8702;48.130;-1.696;2022-10-16T09:27:53;18.40;99.90
17174;DHT22;8702;48.130;-1.696;2022-10-16T09:30:21;18.40;99.90
17174;DHT22;8702;48.130;-1.696;2022-10-16T09:32:50;18.40;99.90
17174;DHT22;8702;48.130;-1.696;2022-10-16T09:35:21;18.50;99.90
17174;DHT22;8702;48.130;-1.696;2022-10-16T09:37:50;18.40;99.90
17174;DHT22;8702;48.130;-1.696;2022-10-16T09:40:26;18.50;99.90
17174;DHT22;8702;48.130;-1.696;2022-10-16T09:43:01;18.50;99.90
17174;DHT22;8702;48.130;-1.696;2022-10-16T09:45:29;18.50;99.90
17174;DHT22;8702;48.130;-1.696;2022-10-16T09:47:56;18.60;99.90
17174;DHT22;8702;48.130;-1.696;2022-10-16T09:50:26;18.60;99.90
17174;DHT22;8702;48.130;-1.696;2022-10-16T09:53:04;18.60;99.90
17174;DHT22;8702;48.130;-1.696;2022-10-16T09:55:31;18.70;99.90
17174;DHT22;8702;48.130;-1.696;2022-10-16T09:57:58;18.60;99.90
17174;DHT22;8702;48.130;-1.696;2022-10-16T10:00:25;18.50;99.90
17174;DHT22;8702;48.130;-1.696;2022-10-16T10:02:53;18.50;99.90
17174;DHT22;8702;48.130;-1.696;2022-10-16T10:05:22;18.50;99.90
17174;DHT22;8702;48.130;-1.696;2022-10-16T10:07:56;18.60;99.90
17174;DHT22;8702;48.130;-1.696;2022-10-16T10:10:25;18.60;99.90
17174;DHT22;8702;48.130;-1.696;2022-10-16T10:12:53;18.70;99.90
17174;DHT22;8702;48.130;-1.696;2022-10-16T10:15:21;18.70;99.90
17174;DHT22;8702;48.130;-1.696;2022-10-16T10:17:51;18.70;99.90
17174;DHT22;8702;48.130;-1.696;2022-10-16T10:20:24;18.70;99.90
17174;DHT22;8702;48.130;-1.696;2022-10-16T10:22:52;18.80;99.90
17174;DHT22;8702;48.130;-1.696;2022-10-16T10:25:38;18.80;99.90
17174;DHT22;8702;48.130;-1.696;2022-10-16T10:28:18;18.70;99.90
17174;DHT22;8702;48.130;-1.696;2022-10-16T10:30:54;18.60;99.90
17174;DHT22;8702;48.130;-1.696;2022-10-16T10:33:28;18.70;99.90
17174;DHT22;8702;48.130;-1.696;2022-10-16T10:36:03;18.80;99.90
17174;DHT22;8702;48.130;-1.696;2022-10-16T10:38:39;18.90;99.90
17174;DHT22;8702;48.130;-1.696;2022-10-16T10:41:24;18.90;99.90
17174;DHT22;8702;48.130;-1.696;2022-10-16T10:44:01;18.80;99.90
17174;DHT22;8702;48.130;-1.696;2022-10-16T10:46:34;18.90;99.90
17174;DHT22;8702;48.130;-1.696;2022-10-16T10:49:20;18.80;99.90
17174;DHT22;8702;48.130;-1.696;2022-10-16T10:51:58;18.70;99.90
17174;DHT22;8702;48.130;-1.696;2022-10-16T10:54:34;18.70;99.90
17174;DHT22;8702;48.130;-1.696;2022-10-16T10:57:12;18.60;99.90
17174;DHT22;8702;48.130;-1.696;2022-10-16T11:00:06;18.60;99.90
17174;DHT22;8702;48.130;-1.696;2022-10-16T11:02:41;18.50;99.90
17174;DHT22;8702;48.130;-1.696;2022-10-16T11:05:31;18.60;99.90
17174;DHT22;8702;48.130;-1.696;2022-10-16T11:08:03;18.60;99.90
17174;DHT22;8702;48.130;-1.696;2022-10-16T11:10:42;18.50;99.90
17174;DHT22;8702;48.130;-1.696;2022-10-16T11:13:20;18.40;99.90
17174;DHT22;8702;48.130;-1.696;2022-10-16T11:15:51;18.30;99.90
17174;DHT22;8702;48.130;-1.696;2022-10-16T11:18:21;18.20;99.90
17174;DHT22;8702;48.130;-1.696;2022-10-16T11:20:52;18.20;99.90
17174;DHT22;8702;48.130;-1.696;2022-10-16T11:23:24;18.20;99.90
17174;DHT22;8702;48.130;-1.696;2022-10-16T11:25:53;18.20;99.90
17174;DHT22;8702;48.130;-1.696;2022-10-16T11:28:29;18.20;99.90
17174;DHT22;8702;48.130;-1.696;2022-10-16T11:31:03;18.10;99.90
17174;DHT22;8702;48.130;-1.696;2022-10-16T11:33:39;18.10;99.90
17174;DHT22;8702;48.130;-1.696;2022-10-16T11:36:12;18.10;99.90
17174;DHT22;8702;48.130;-1.696;2022-10-16T11:38:46;18.00;99.90
17174;DHT22;8702;48.130;-1.696;2022-10-16T11:41:22;18.10;99.90
17174;DHT22;8702;48.130;-1.696;2022-10-16T11:44:12;18.00;99.90
17174;DHT22;8702;48.130;-1.696;2022-10-16T11:46:46;18.00;99.90
17174;DHT22;8702;48.130;-1.696;2022-10-16T11:49:18;18.10;99.90
17174;DHT22;8702;48.130;-1.696;2022-10-16T11:51:50;18.00;99.90
17174;DHT22;8702;48.130;-1.696;2022-10-16T11:54:24;18.00;99.90
17174;DHT22;8702;48.130;-1.696;2022-10-16T11:56:57;18.10;99.90
17174;DHT22;8702;48.130;-1.696;2022-10-16T11:59:32;18.10;99.90
17174;DHT22;8702;48.130;-1.696;2022-10-16T12:02:28;18.10;99.90
17174;DHT22;8702;48.130;-1.696;2022-10-16T12:05:07;18.20;99.90
17174;DHT22;8702;48.130;-1.696;2022-10-16T12:07:41;18.20;99.90
17174;DHT22;8702;48.130;-1.696;2022-10-16T12:10:19;18.30;99.90
17174;DHT22;8702;48.130;-1.696;2022-10-16T12:12:47;18.20;99.90
17174;DHT22;8702;48.130;-1.696;2022-10-16T12:15:24;18.30;99.90
17174;DHT22;8702;48.130;-1.696;2022-10-16T12:17:51;18.20;99.90
17174;DHT22;8702;48.130;-1.696;2022-10-16T12:20:23;18.20;99.90
17174;DHT22;8702;48.130;-1.696;2022-10-16T12:22:53;18.30;99.90
17174;DHT22;8702;48.130;-1.696;2022-10-16T12:25:23;18.40;99.90
17174;DHT22;8702;48.130;-1.696;2022-10-16T12:27:58;18.40;99.90
17174;DHT22;8702;48.130;-1.696;2022-10-16T12:30:28;18.40;99.90
17174;DHT22;8702;48.130;-1.696;2022-10-16T12:32:56;18.40;99.90
17174;DHT22;8702;48.130;-1.696;2022-10-16T12:35:27;18.50;99.90
17174;DHT22;8702;48.130;-1.696;2022-10-16T12:38:05;18.50;99.90
17174;DHT22;8702;48.130;-1.696;2022-10-16T12:40:34;18.50;99.90
17174;DHT22;8702;48.130;-1.696;2022-10-16T12:43:13;18.70;99.90
17174;DHT22;8702;48.130;-1.696;2022-10-16T12:46:01;18.70;99.90
17174;DHT22;8702;48.130;-1.696;2022-10-16T12:48:29;18.70;99.90
17174;DHT22;8702;48.130;-1.696;2022-10-16T12:50:56;18.80;99.90
17174;DHT22;8702;48.130;-1.696;2022-10-16T12:53:25;18.80;99.90
17174;DHT22;8702;48.130;-1.696;2022-10-16T12:56:02;18.80;99.90
17174;DHT22;8702;48.130;-1.696;2022-10-16T12:59:00;18.90;99.90
17174;DHT22;8702;48.130;-1.696;2022-10-16T13:01:53;18.90;99.90
17174;DHT22;8702;48.130;-1.696;2022-10-16T13:04:44;19.00;99.90
17174;DHT22;8702;48.130;-1.696;2022-10-16T13:07:27;19.10;99.90
17174;DHT22;8702;48.130;-1.696;2022-10-16T13:10:06;19.10;99.90
17174;DHT22;8702;48.130;-1.696;2022-10-16T13:12:56;18.90;99.90
17174;DHT22;8702;48.130;-1.696;2022-10-16T13:15:34;19.40;99.90
17174;DHT22;8702;48.130;-1.696;2022-10-16T13:18:13;19.30;99.90
17174;DHT22;8702;48.130;-1.696;2022-10-16T13:20:52;19.20;99.90
17174;DHT22;8702;48.130;-1.696;2022-10-16T13:23:29;19.30;99.90
17174;DHT22;8702;48.130;-1.696;2022-10-16T13:26:09;19.40;99.90
17174;DHT22;8702;48.130;-1.696;2022-10-16T13:28:39;19.40;99.90
17174;DHT22;8702;48.130;-1.696;2022-10-16T13:31:15;19.50;99.90
17174;DHT22;8702;48.130;-1.696;2022-10-16T13:33:48;19.60;99.90
17174;DHT22;8702;48.130;-1.696;2022-10-16T13:36:22;19.60;99.90
17174;DHT22;8702;48.130;-1.696;2022-10-16T13:39:00;19.70;99.90
17174;DHT22;8702;48.130;-1.696;2022-10-16T13:41:27;19.80;99.90
17174;DHT22;8702;48.130;-1.696;2022-10-16T13:43:56;19.70;99.90
17174;DHT22;8702;48.130;-1.696;2022-10-16T13:46:24;19.70;99.90
17174;DHT22;8702;48.130;-1.696;2022-10-16T13:49:04;19.80;99.90
17174;DHT22;8702;48.130;-1.696;2022-10-16T13:51:32;19.80;99.90
17174;DHT22;8702;48.130;-1.696;2022-10-16T13:53:59;19.90;99.90
17174;DHT22;8702;48.130;-1.696;2022-10-16T13:56:28;20.00;99.90
17174;DHT22;8702;48.130;-1.696;2022-10-16T13:58:59;20.00;99.90
17174;DHT22;8702;48.130;-1.696;2022-10-16T14:01:29;20.10;99.90
17174;DHT22;8702;48.130;-1.696;2022-10-16T14:04:03;20.10;99.90
17174;DHT22;8702;48.130;-1.696;2022-10-16T14:06:32;20.10;99.90
17174;DHT22;8702;48.130;-1.696;2022-10-16T14:09:02;20.20;99.90
17174;DHT22;8702;48.130;-1.696;2022-10-16T14:11:32;20.40;99.90
17174;DHT22;8702;48.130;-1.696;2022-10-16T14:14:00;20.40;99.90
17174;DHT22;8702;48.130;-1.696;2022-10-16T14:16:30;20.50;99.90
17174;DHT22;8702;48.130;-1.696;2022-10-16T14:19:00;20.50;99.90
17174;DHT22;8702;48.130;-1.696;2022-10-16T14:21:29;20.60;99.90
17174;DHT22;8702;48.130;-1.696;2022-10-16T14:23:57;20.70;99.90
17174;DHT22;8702;48.130;-1.696;2022-10-16T14:26:27;20.70;99.90
17174;DHT22;8702;48.130;-1.696;2022-10-16T14:29:11;20.80;99.90
17174;DHT22;8702;48.130;-1.696;2022-10-16T14:31:38;20.80;99.90
17174;DHT22;8702;48.130;-1.696;2022-10-16T14:34:24;20.90;99.90
17174;DHT22;8702;48.130;-1.696;2022-10-16T14:36:54;20.90;99.90
17174;DHT22;8702;48.130;-1.696;2022-10-16T14:39:22;21.10;99.90
17174;DHT22;8702;48.130;-1.696;2022-10-16T14:41:51;21.10;99.90
17174;DHT22;8702;48.130;-1.696;2022-10-16T14:44:19;21.10;99.90
17174;DHT22;8702;48.130;-1.696;2022-10-16T14:46:52;21.10;99.90
17174;DHT22;8702;48.130;-1.696;2022-10-16T14:49:20;21.20;99.90
17174;DHT22;8702;48.130;-1.696;2022-10-16T14:51:48;21.30;99.90
17174;DHT22;8702;48.130;-1.696;2022-10-16T14:54:18;21.30;99.90
17174;DHT22;8702;48.130;-1.696;2022-10-16T14:56:47;21.50;99.90
17174;DHT22;8702;48.130;-1.696;2022-10-16T14:59:18;21.40;99.90
17174;DHT22;8702;48.130;-1.696;2022-10-16T15:01:46;21.70;99.90
17174;DHT22;8702;48.130;-1.696;2022-10-16T15:04:13;21.80;99.90
17174;DHT22;8702;48.130;-1.696;2022-10-16T15:06:41;21.90;99.90
17174;DHT22;8702;48.130;-1.696;2022-10-16T15:09:08;22.00;99.90
17174;DHT22;8702;48.130;-1.696;2022-10-16T15:11:37;22.20;99.90
17174;DHT22;8702;48.130;-1.696;2022-10-16T15:14:04;22.20;99.90
17174;DHT22;8702;48.130;-1.696;2022-10-16T15:16:34;22.20;99.90
17174;DHT22;8702;48.130;-1.696;2022-10-16T15:19:01;22.30;99.90
17174;DHT22;8702;48.130;-1.696;2022-10-16T15:21:29;22.20;99.90
17174;DHT22;8702;48.130;-1.696;2022-10-16T15:23:58;22.10;99.90
17174;DHT22;8702;48.130;-1.696;2022-10-16T15:26:26;22.10;99.90
17174;DHT22;8702;48.130;-1.696;2022-10-16T15:28:55;22.00;99.90
17174;DHT22;8702;48.130;-1.696;2022-10-16T15:31:23;22.00;99.90
17174;DHT22;8702;48.130;-1.696;2022-10-16T15:33:50;22.10;99.90
17174;DHT22;8702;48.130;-1.696;2022-10-16T15:36:25;22.10;99.90
17174;DHT22;8702;48.130;-1.696;2022-10-16T15:38:53;22.30;99.90
17174;DHT22;8702;48.130;-1.696;2022-10-16T15:41:20;22.30;99.90
17174;DHT22;8702;48.130;-1.696;2022-10-16T15:43:48;22.30;99.90
17174;DHT22;8702;48.130;-1.696;2022-10-16T15:46:20;22.30;99.90
17174;DHT22;8702;48.130;-1.696;2022-10-16T15:48:47;21.70;99.90
17174;DHT22;8702;48.130;-1.696;2022-10-16T15:51:14;22.80;99.90
17174;DHT22;8702;48.130;-1.696;2022-10-16T15:53:41;23.10;99.90
17174;DHT22;8702;48.130;-1.696;2022-10-16T15:56:10;23.40;99.90